createdAt,value
2022-10-06T00:00:30.009Z,12.10
2022-10-06T00:03:38.335Z,12.09
2022-10-06T00:06:30.614Z,12.05
2022-10-06T00:09:02.556Z,12.02
2022-10-06T00:11:54.714Z,11.95
2022-10-06T00:14:31.812Z,11.89
2022-10-06T00:17:03.727Z,11.82
2022-10-06T00:19:35.671Z,11.77
2022-10-06T00:22:17.973Z,11.76
2022-10-06T00:25:00.096Z,11.77
2022-10-06T00:27:53.894Z,11.77
2022-10-06T00:30:32.064Z,11.78
2022-10-06T00:33:04.950Z,11.77
2022-10-06T00:35:49.981Z,11.74
2022-10-06T00:38:21.951Z,11.69
2022-10-06T00:41:08.308Z,11.64
2022-10-06T00:43:52.587Z,11.59
2022-10-06T00:46:46.921Z,11.54
2022-10-06T00:49:23.172Z,11.50
2022-10-06T00:52:19.647Z,11.49
2022-10-06T00:54:52.161Z,11.50
2022-10-06T00:57:39.422Z,11.52
2022-10-06T01:00:22.226Z,11.54
2022-10-06T01:03:18.719Z,11.52
2022-10-06T01:06:11.582Z,11.48
2022-10-06T01:08:47.001Z,11.43
2022-10-06T01:11:39.301Z,11.38
2022-10-06T01:14:20.808Z,11.32
2022-10-06T01:17:07.734Z,11.30
2022-10-06T01:19:53.688Z,11.29
2022-10-06T01:22:47.727Z,11.31
2022-10-06T01:25:29.637Z,11.32
2022-10-06T01:28:16.205Z,11.33
2022-10-06T01:31:10.443Z,11.33
2022-10-06T01:33:42.902Z,11.33
2022-10-06T01:36:17.305Z,11.31
2022-10-06T01:38:49.343Z,11.30
2022-10-06T01:41:22.617Z,11.27
2022-10-06T01:44:07.514Z,11.25
2022-10-06T01:46:39.598Z,11.25
2022-10-06T01:49:31.643Z,11.25
2022-10-06T01:52:13.409Z,11.25
2022-10-06T01:54:45.176Z,11.28
2022-10-06T01:57:42.824Z,11.30
2022-10-06T02:00:18.651Z,11.29
2022-10-06T02:03:10.734Z,11.28
2022-10-06T02:05:42.568Z,11.25
2022-10-06T02:08:18.910Z,11.21
2022-10-06T02:11:10.161Z,11.18
2022-10-06T02:13:53.710Z,11.16
2022-10-06T02:16:45.724Z,11.17
2022-10-06T02:19:27.771Z,11.19
2022-10-06T02:22:20.158Z,11.23
2022-10-06T02:24:54.450Z,11.25
2022-10-06T02:27:28.982Z,11.24
2022-10-06T02:30:22.964Z,11.21
2022-10-06T02:32:55.566Z,11.17
2022-10-06T02:35:42.958Z,11.15
2022-10-06T02:38:18.126Z,11.14
2022-10-06T02:41:11.643Z,11.14
2022-10-06T02:44:06.715Z,11.15
2022-10-06T02:46:41.971Z,11.16
2022-10-06T02:49:13.874Z,11.17
2022-10-06T02:52:05.883Z,11.15
2022-10-06T02:54:47.163Z,11.14
2022-10-06T02:57:29.159Z,11.10
2022-10-06T03:00:14.945Z,11.05
2022-10-06T03:02:57.043Z,11.00
2022-10-06T03:05:34.139Z,10.97
2022-10-06T03:08:26.580Z,10.96
2022-10-06T03:11:06.718Z,10.97
2022-10-06T03:13:53.315Z,10.96
2022-10-06T03:16:45.913Z,10.97
2022-10-06T03:19:47.578Z,10.97
2022-10-06T03:22:37.206Z,10.97
2022-10-06T03:25:11.559Z,10.98
2022-10-06T03:27:44.383Z,10.98
2022-10-06T03:30:16.627Z,10.96
2022-10-06T03:32:48.984Z,10.93
2022-10-06T03:35:40.943Z,10.89
2022-10-06T03:38:26.775Z,10.86
2022-10-06T03:41:20.885Z,10.88
2022-10-06T03:44:12.909Z,10.91
2022-10-06T03:47:05.154Z,10.96
2022-10-06T03:49:57.266Z,10.99
2022-10-06T03:52:51.506Z,11.03
2022-10-06T03:55:24.124Z,11.06
2022-10-06T03:58:19.658Z,11.07
2022-10-06T04:01:01.157Z,11.05
2022-10-06T04:03:33.828Z,11.03
2022-10-06T04:06:28.726Z,11.00
2022-10-06T04:09:15.729Z,10.99
2022-10-06T04:11:59.413Z,10.99
2022-10-06T04:14:52.804Z,11.01
2022-10-06T04:17:30.476Z,11.03
2022-10-06T04:20:23.378Z,11.06
2022-10-06T04:22:56.910Z,11.11
2022-10-06T04:25:41.303Z,11.13
2022-10-06T04:28:14.480Z,11.14
2022-10-06T04:31:12.953Z,11.14
2022-10-06T04:33:49.225Z,11.10
2022-10-06T04:36:32.431Z,11.07
2022-10-06T04:39:15.237Z,11.04
2022-10-06T04:41:50.865Z,11.02
2022-10-06T04:44:48.981Z,11.02
2022-10-06T04:47:21.082Z,11.03
2022-10-06T04:49:54.292Z,11.06
2022-10-06T04:52:32.023Z,11.08
2022-10-06T04:55:05.418Z,11.10
2022-10-06T04:57:37.552Z,11.11
2022-10-06T05:00:25.825Z,11.12
2022-10-06T05:02:58.959Z,11.11
2022-10-06T05:05:33.880Z,11.10
2022-10-06T05:08:11.479Z,11.08
2022-10-06T05:10:43.442Z,11.08
2022-10-06T05:13:16.351Z,11.11
2022-10-06T05:15:58.143Z,11.15
2022-10-06T05:18:33.033Z,11.20
2022-10-06T05:21:08.391Z,11.25
2022-10-06T05:23:44.215Z,11.29
2022-10-06T05:26:18.670Z,11.33
2022-10-06T05:28:53.140Z,11.35
2022-10-06T05:31:40.514Z,11.36
2022-10-06T05:34:15.791Z,11.36
2022-10-06T05:36:51.498Z,11.37
2022-10-06T05:39:23.244Z,11.41
2022-10-06T05:41:59.313Z,11.47
2022-10-06T05:44:32.693Z,11.55
2022-10-06T05:47:17.224Z,11.65
2022-10-06T05:49:49.425Z,11.76
2022-10-06T05:52:31.577Z,11.86
2022-10-06T05:55:03.542Z,11.97
2022-10-06T05:57:35.396Z,12.06
2022-10-06T06:00:09.340Z,12.15
2022-10-06T06:02:45.089Z,12.24
2022-10-06T06:05:18.590Z,12.33
2022-10-06T06:07:52.943Z,12.42
2022-10-06T06:10:27.759Z,12.52
2022-10-06T06:13:00.436Z,12.63
2022-10-06T06:16:02.090Z,12.76
2022-10-06T06:18:36.946Z,12.91
2022-10-06T06:21:13.206Z,13.06
2022-10-06T06:24:06.302Z,13.18
2022-10-06T06:26:41.822Z,13.28
2022-10-06T06:29:17.520Z,13.34
2022-10-06T06:31:51.189Z,13.40
2022-10-06T06:34:23.385Z,13.46
2022-10-06T06:37:03.605Z,13.54
2022-10-06T06:39:39.017Z,13.61
2022-10-06T06:42:10.935Z,13.68
2022-10-06T06:44:45.224Z,13.77
2022-10-06T06:47:28.523Z,13.90
2022-10-06T06:50:03.166Z,14.00
2022-10-06T06:52:38.006Z,14.10
2022-10-06T06:55:11.594Z,14.21
2022-10-06T06:57:43.877Z,14.33
2022-10-06T07:00:36.417Z,14.40
2022-10-06T07:03:52.521Z,14.48
2022-10-06T07:06:18.761Z,14.54
2022-10-06T07:08:51.632Z,14.59
2022-10-06T07:11:44.066Z,14.65
2022-10-06T07:14:22.656Z,14.71
2022-10-06T07:17:12.604Z,14.80
2022-10-06T07:20:05.627Z,14.92
2022-10-06T07:22:55.315Z,15.02
2022-10-06T07:25:29.256Z,15.12
2022-10-06T07:28:06.882Z,15.25
2022-10-06T07:30:52.850Z,15.39
2022-10-06T07:33:28.384Z,15.50
2022-10-06T07:36:00.776Z,15.57
2022-10-06T07:38:33.594Z,15.64
2022-10-06T07:41:18.916Z,15.71
2022-10-06T07:44:11.830Z,15.78
2022-10-06T07:46:43.894Z,15.81
2022-10-06T07:49:22.259Z,15.86
2022-10-06T07:51:54.577Z,15.91
2022-10-06T07:54:27.592Z,15.95
2022-10-06T07:57:27.074Z,15.99
2022-10-06T08:00:02.916Z,16.03
2022-10-06T08:02:44.232Z,16.09
2022-10-06T08:05:15.988Z,16.13
2022-10-06T08:07:49.481Z,16.20
2022-10-06T08:10:22.011Z,16.27
2022-10-06T08:12:53.966Z,16.34
2022-10-06T08:15:26.011Z,16.43
2022-10-06T08:18:00.338Z,16.50
2022-10-06T08:20:32.598Z,16.60
2022-10-06T08:23:12.403Z,16.70
2022-10-06T08:25:50.492Z,16.84
2022-10-06T08:28:22.347Z,16.98
2022-10-06T08:30:55.516Z,17.10
2022-10-06T08:33:31.265Z,17.21
2022-10-06T08:36:09.356Z,17.26
2022-10-06T08:38:42.630Z,17.28
2022-10-06T08:41:23.649Z,17.33
2022-10-06T08:44:04.536Z,17.39
2022-10-06T08:46:41.565Z,17.45
2022-10-06T08:49:19.148Z,17.49
2022-10-06T08:51:58.353Z,17.55
2022-10-06T08:54:37.489Z,17.61
2022-10-06T08:57:16.107Z,17.70
2022-10-06T08:59:53.745Z,17.82
2022-10-06T09:02:31.327Z,17.91
2022-10-06T09:05:06.891Z,18.02
2022-10-06T09:07:49.714Z,18.15
2022-10-06T09:10:34.330Z,18.28
2022-10-06T09:13:12.648Z,18.42
2022-10-06T09:15:51.088Z,18.51
2022-10-06T09:18:49.441Z,18.62
2022-10-06T09:21:32.701Z,18.73
2022-10-06T09:24:13.791Z,18.83
2022-10-06T09:26:49.634Z,19.00
2022-10-06T09:29:21.845Z,19.15
2022-10-06T09:31:53.876Z,19.29
2022-10-06T09:34:35.019Z,19.45
2022-10-06T09:37:10.909Z,19.70
2022-10-06T09:39:44.525Z,20.02
2022-10-06T09:42:19.612Z,20.35
2022-10-06T09:45:00.915Z,20.69
2022-10-06T09:47:41.036Z,20.91
2022-10-06T09:50:22.156Z,21.11
2022-10-06T09:53:11.404Z,21.23
2022-10-06T09:55:55.336Z,21.25
2022-10-06T09:58:34.326Z,21.15
2022-10-06T10:01:09.294Z,21.09
2022-10-06T10:06:43.378Z,20.81
2022-10-06T10:09:27.200Z,20.60
2022-10-06T10:12:32.179Z,20.38
2022-10-06T10:15:24.369Z,20.27
2022-10-06T10:17:59.260Z,20.26
2022-10-06T10:20:37.598Z,20.34
2022-10-06T10:23:27.282Z,20.34
2022-10-06T10:26:17.727Z,20.38
2022-10-06T10:29:05.268Z,20.42
2022-10-06T10:31:48.178Z,20.51
2022-10-06T10:34:38.417Z,20.66
2022-10-06T10:37:14.498Z,20.82
2022-10-06T10:39:51.293Z,20.93
2022-10-06T10:42:31.242Z,20.92
2022-10-06T10:45:05.523Z,20.86
2022-10-06T10:47:41.439Z,20.75
2022-10-06T10:50:25.661Z,20.62
2022-10-06T10:53:05.930Z,20.46
2022-10-06T10:55:44.184Z,20.33
2022-10-06T10:58:22.765Z,20.32
2022-10-06T11:00:59.226Z,20.50
2022-10-06T11:03:31.363Z,20.73
2022-10-06T11:06:24.476Z,20.91
2022-10-06T11:09:03.081Z,20.98
2022-10-06T11:11:52.326Z,20.96
2022-10-06T11:14:37.945Z,20.78
2022-10-06T11:17:19.812Z,20.53
2022-10-06T11:19:58.839Z,20.51
2022-10-06T11:22:41.776Z,20.51
2022-10-06T11:25:25.835Z,20.51
2022-10-06T11:28:04.914Z,20.60
2022-10-06T11:30:46.009Z,20.89
2022-10-06T11:33:22.197Z,21.18
2022-10-06T11:35:54.167Z,21.26
2022-10-06T11:38:30.975Z,21.33
2022-10-06T11:41:13.787Z,21.42
2022-10-06T11:43:52.543Z,21.44
2022-10-06T11:46:41.289Z,21.42
2022-10-06T11:49:53.417Z,21.48
2022-10-06T11:52:57.233Z,21.50
2022-10-06T11:55:29.654Z,21.51
2022-10-06T11:58:41.464Z,21.53
2022-10-06T12:01:50.077Z,21.56
2022-10-06T12:04:24.742Z,21.55
2022-10-06T12:07:01.609Z,21.56
2022-10-06T12:10:16.134Z,21.50
2022-10-06T12:13:21.185Z,21.40
2022-10-06T12:19:19.539Z,21.28
2022-10-06T12:22:01.167Z,21.22
2022-10-06T12:24:48.116Z,21.17
2022-10-06T12:27:48.673Z,21.21
2022-10-06T12:30:27.963Z,21.28
2022-10-06T12:33:05.342Z,21.32
2022-10-06T12:35:40.045Z,21.35
2022-10-06T12:38:44.603Z,21.31
2022-10-06T12:41:37.966Z,21.21
2022-10-06T12:44:26.290Z,21.23
2022-10-06T12:47:01.570Z,21.25
2022-10-06T12:49:53.842Z,21.25
2022-10-06T12:52:46.797Z,21.34
2022-10-06T12:55:36.044Z,21.43
2022-10-06T12:58:17.149Z,21.49
2022-10-06T13:00:49.639Z,21.57
2022-10-06T13:03:26.281Z,21.63
2022-10-06T13:06:02.557Z,21.69
2022-10-06T13:08:36.836Z,21.77
2022-10-06T13:11:20.679Z,21.88
2022-10-06T13:13:54.950Z,21.92
2022-10-06T13:16:29.067Z,21.89
2022-10-06T13:19:02.312Z,21.88
2022-10-06T13:21:34.818Z,21.89
2022-10-06T13:24:06.959Z,21.95
2022-10-06T13:26:38.887Z,21.93
2022-10-06T13:29:21.354Z,21.91
2022-10-06T13:31:54.894Z,21.91
2022-10-06T13:34:33.429Z,21.90
2022-10-06T13:37:05.548Z,21.80
2022-10-06T13:39:37.446Z,21.71
2022-10-06T13:42:17.701Z,21.67
2022-10-06T13:44:56.895Z,21.62
2022-10-06T13:47:30.727Z,21.54
2022-10-06T13:50:04.942Z,21.41
2022-10-06T13:52:39.579Z,21.31
2022-10-06T13:55:21.828Z,21.23
2022-10-06T13:58:09.417Z,21.18
2022-10-06T14:00:50.397Z,21.16
2022-10-06T14:03:25.742Z,21.13
2022-10-06T14:06:10.152Z,21.09
2022-10-06T14:08:41.961Z,21.06
2022-10-06T14:11:13.933Z,21.02
2022-10-06T14:13:52.034Z,20.95
2022-10-06T14:16:26.347Z,20.85
2022-10-06T14:19:00.383Z,20.73
2022-10-06T14:21:38.780Z,20.63
2022-10-06T14:24:26.229Z,20.56
2022-10-06T14:27:03.592Z,20.55
2022-10-06T14:29:38.019Z,20.54
2022-10-06T14:32:14.667Z,20.51
2022-10-06T14:34:47.109Z,20.41
2022-10-06T14:37:18.975Z,20.28
2022-10-06T14:39:54.773Z,20.22
2022-10-06T14:42:26.647Z,20.21
2022-10-06T14:44:58.655Z,20.23
2022-10-06T14:47:31.434Z,20.30
2022-10-06T14:50:03.163Z,20.38
2022-10-06T14:52:35.083Z,20.44
2022-10-06T14:55:08.368Z,20.49
2022-10-06T14:57:40.771Z,20.53
2022-10-06T15:00:16.488Z,20.56
2022-10-06T15:02:48.725Z,20.54
2022-10-06T15:05:20.776Z,20.52
2022-10-06T15:08:11.849Z,20.51
2022-10-06T15:10:54.099Z,20.43
2022-10-06T15:13:25.955Z,20.31
2022-10-06T15:16:02.261Z,20.13
2022-10-06T15:18:38.424Z,19.94
2022-10-06T15:21:14.119Z,19.76
2022-10-06T15:23:46.378Z,19.60
2022-10-06T15:26:35.856Z,19.46
2022-10-06T15:29:07.770Z,19.32
2022-10-06T15:31:41.492Z,19.24
2022-10-06T15:34:14.453Z,19.18
2022-10-06T15:36:46.244Z,19.13
2022-10-06T15:39:18.397Z,19.08
2022-10-06T15:41:50.648Z,19.02
2022-10-06T15:44:25.958Z,18.96
2022-10-06T15:46:59.113Z,18.87
2022-10-06T15:49:32.967Z,18.79
2022-10-06T15:52:05.776Z,18.71
2022-10-06T15:54:39.718Z,18.62
2022-10-06T15:57:17.926Z,18.53
2022-10-06T15:59:52.445Z,18.44
2022-10-06T16:02:24.693Z,18.37
2022-10-06T16:05:17.793Z,18.31
2022-10-06T16:07:49.703Z,18.29
2022-10-06T16:10:21.460Z,18.28
2022-10-06T16:12:53.206Z,18.29
2022-10-06T16:15:25.291Z,18.30
2022-10-06T16:17:57.492Z,18.28
2022-10-06T16:20:32.304Z,18.27
2022-10-06T16:23:04.177Z,18.23
2022-10-06T16:25:35.922Z,18.20
2022-10-06T16:28:07.653Z,18.16
2022-10-06T16:30:39.628Z,18.11
2022-10-06T16:33:11.361Z,18.08
2022-10-06T16:35:43.210Z,18.06
2022-10-06T16:38:18.017Z,18.06
2022-10-06T16:40:57.718Z,18.08
2022-10-06T16:43:35.771Z,18.09
2022-10-06T16:46:09.207Z,18.06
2022-10-06T16:48:43.219Z,18.02
2022-10-06T16:51:17.242Z,17.94
2022-10-06T16:53:51.118Z,17.85
2022-10-06T16:56:24.999Z,17.77
2022-10-06T16:58:59.192Z,17.70
2022-10-06T17:01:32.460Z,17.67
2022-10-06T17:04:06.714Z,17.67
2022-10-06T17:06:40.478Z,17.69
2022-10-06T17:09:14.677Z,17.69
2022-10-06T17:11:49.149Z,17.67
2022-10-06T17:14:22.297Z,17.63
2022-10-06T17:16:57.001Z,17.56
2022-10-06T17:19:31.109Z,17.51
2022-10-06T17:22:02.968Z,17.47
2022-10-06T17:24:34.835Z,17.48
2022-10-06T17:27:10.386Z,17.47
2022-10-06T17:29:44.706Z,17.46
2022-10-06T17:32:16.809Z,17.46
2022-10-06T17:34:48.954Z,17.43
2022-10-06T17:37:21.897Z,17.35
2022-10-06T17:39:53.771Z,17.29
2022-10-06T17:42:25.567Z,17.24
2022-10-06T17:44:58.446Z,17.16
2022-10-06T17:47:30.258Z,17.07
2022-10-06T17:50:01.971Z,16.97
2022-10-06T17:52:37.632Z,16.90
2022-10-06T17:55:11.306Z,16.83
2022-10-06T17:57:43.326Z,16.78
2022-10-06T18:00:18.251Z,16.73
2022-10-06T18:02:50.402Z,16.67
2022-10-06T18:05:22.337Z,16.58
2022-10-06T18:07:56.268Z,16.48
2022-10-06T18:10:45.393Z,16.39
2022-10-06T18:13:17.229Z,16.33
2022-10-06T18:15:49.641Z,16.30
2022-10-06T18:18:25.322Z,16.29
2022-10-06T18:21:04.524Z,16.29
2022-10-06T18:23:39.645Z,16.26
2022-10-06T18:26:12.861Z,16.24
2022-10-06T18:28:48.315Z,16.21
2022-10-06T18:31:23.991Z,16.20
2022-10-06T18:36:47.742Z,16.12
2022-10-06T18:39:19.858Z,16.06
2022-10-06T18:41:52.902Z,16.04
2022-10-06T18:44:38.762Z,16.03
2022-10-06T18:47:27.903Z,16.01
2022-10-06T18:50:02.431Z,16.00
2022-10-06T18:52:34.683Z,15.96
2022-10-06T18:55:07.927Z,15.91
2022-10-06T18:57:40.477Z,15.89
2022-10-06T19:00:13.898Z,15.87
2022-10-06T19:02:48.460Z,15.86
2022-10-06T19:05:20.770Z,15.84
2022-10-06T19:07:54.784Z,15.86
2022-10-06T19:10:29.881Z,15.86
2022-10-06T19:13:01.905Z,15.86
2022-10-06T19:15:33.706Z,15.90
2022-10-06T19:18:07.256Z,15.94
2022-10-06T19:20:39.217Z,15.93
2022-10-06T19:23:11.823Z,15.93
2022-10-06T19:25:50.809Z,15.92
2022-10-06T19:28:22.705Z,15.91
2022-10-06T19:31:01.841Z,15.89
2022-10-06T19:33:34.585Z,15.85
2022-10-06T19:36:09.422Z,15.80
2022-10-06T19:38:41.985Z,15.75
2022-10-06T19:41:34.216Z,15.74
2022-10-06T19:44:06.237Z,15.74
2022-10-06T19:46:38.644Z,15.71
2022-10-06T19:49:11.496Z,15.73
2022-10-06T19:51:43.310Z,15.73
2022-10-06T19:54:15.519Z,15.71
2022-10-06T19:56:48.503Z,15.69
2022-10-06T19:59:22.554Z,15.69
2022-10-06T20:01:55.129Z,15.72
2022-10-06T20:04:27.480Z,15.74
2022-10-06T20:07:02.008Z,15.76
2022-10-06T20:09:34.023Z,15.75
2022-10-06T20:12:07.018Z,15.73
2022-10-06T20:14:40.942Z,15.74
2022-10-06T20:17:12.853Z,15.70
2022-10-06T20:19:47.353Z,15.65
2022-10-06T20:22:21.534Z,15.63
2022-10-06T20:24:53.469Z,15.59
2022-10-06T20:27:25.590Z,15.55
2022-10-06T20:29:58.210Z,15.52
2022-10-06T20:32:31.268Z,15.51
2022-10-06T20:35:04.889Z,15.51
2022-10-06T20:37:38.483Z,15.51
2022-10-06T20:40:29.634Z,15.52
2022-10-06T20:43:02.865Z,15.56
2022-10-06T20:45:37.834Z,15.58
2022-10-06T20:48:15.503Z,15.56
2022-10-06T20:50:47.488Z,15.53
2022-10-06T20:53:19.227Z,15.46
2022-10-06T20:55:55.901Z,15.43
2022-10-06T20:58:27.834Z,15.44
2022-10-06T21:01:08.701Z,15.45
2022-10-06T21:03:48.848Z,15.48
2022-10-06T21:06:21.079Z,15.48
2022-10-06T21:08:56.414Z,15.49
2022-10-06T21:11:34.885Z,15.49
2022-10-06T21:14:07.481Z,15.52
2022-10-06T21:16:42.129Z,15.56
2022-10-06T21:19:18.284Z,15.56
2022-10-06T21:21:53.441Z,15.53
2022-10-06T21:24:26.212Z,15.50
2022-10-06T21:27:01.127Z,15.48
2022-10-06T21:29:32.970Z,15.45
2022-10-06T21:32:05.095Z,15.43
2022-10-06T21:34:37.543Z,15.40
2022-10-06T21:37:09.510Z,15.38
2022-10-06T21:39:42.268Z,15.39
2022-10-06T21:42:14.361Z,15.42
2022-10-06T21:44:47.402Z,15.45
2022-10-06T21:47:19.358Z,15.49
2022-10-06T21:49:53.508Z,15.51
2022-10-06T21:52:25.420Z,15.48
2022-10-06T21:54:57.333Z,15.43
2022-10-06T21:57:29.316Z,15.39
2022-10-06T22:00:01.153Z,15.34
2022-10-06T22:02:33.148Z,15.28
2022-10-06T22:05:07.757Z,15.22
2022-10-06T22:07:39.875Z,15.17
2022-10-06T22:10:14.408Z,15.13
2022-10-06T22:45:05.217Z,14.51
2022-10-06T22:47:38.141Z,14.41
2022-10-06T22:50:11.323Z,14.33
2022-10-06T22:52:46.114Z,14.24
2022-10-06T22:55:19.070Z,14.13
2022-10-06T22:57:51.148Z,14.04
2022-10-06T23:00:23.033Z,13.97
2022-10-06T23:02:55.107Z,13.91
2022-10-06T23:05:27.193Z,13.86
2022-10-06T23:07:59.469Z,13.79
2022-10-06T23:10:31.579Z,13.77
2022-10-06T23:13:04.125Z,13.73
2022-10-06T23:15:38.441Z,13.68
2022-10-06T23:18:13.292Z,13.60
2022-10-06T23:20:45.226Z,13.49
2022-10-06T23:23:19.370Z,13.39
2022-10-06T23:25:51.356Z,13.31
2022-10-06T23:28:24.683Z,13.22
2022-10-06T23:30:59.228Z,13.15
2022-10-06T23:33:34.131Z,13.10
2022-10-06T23:36:08.394Z,13.05
2022-10-06T23:38:42.294Z,13.00
2022-10-06T23:41:15.745Z,12.95
2022-10-06T23:43:47.809Z,12.89
2022-10-06T23:46:19.818Z,12.81
2022-10-06T23:48:51.738Z,12.70
2022-10-06T23:51:23.566Z,12.60
2022-10-06T23:53:55.373Z,12.50
2022-10-06T23:56:27.160Z,12.42
2022-10-06T23:58:58.998Z,12.37
